Time;durP1;ratioP1;P1;durP2;ratioP2;P2;SDS_P1;SDS_P2;PMS_P1;PMS_P2;Temp;Humidity;BMP_temperature;BMP_pressure;BME280_temperature;BME280_humidity;BME280_pressure;Samples;Min_cycle;Max_cycle;Signal;HPM_P1;HPM_P2
2022/04/07 00:01:37;;;;;;;2.60;1.10;;;;;;;-149.78;100.00;50432.31;5082357;28;20474;-70
2022/04/07 00:04:03;;;;;;;5.55;0.82;;;;;;;-149.78;100.00;50432.31;5071962;28;20036;-70
2022/04/07 00:06:29;;;;;;;9.10;1.17;;;;;;;-149.78;100.00;50416.69;5054561;28;20032;-70
2022/04/07 00:08:54;;;;;;;10.88;1.38;;;;;;;-149.78;100.00;50447.97;5088684;28;20039;-70
2022/04/07 00:11:20;;;;;;;8.65;1.38;;;;;;;-149.78;100.00;50406.91;5092579;28;20460;-70
2022/04/07 00:13:45;;;;;;;3.97;0.90;;;;;;;-149.78;100.00;50418.63;5091183;28;20047;-70
2022/04/07 00:16:11;;;;;;;7.80;1.50;;;;;;;-149.78;100.00;50447.97;5092511;28;20032;-71
2022/04/07 00:18:37;;;;;;;9.90;1.40;;;;;;;-149.78;100.00;50416.69;5091282;28;20032;-70
2022/04/07 00:21:06;;;;;;;6.28;1.33;;;;;;;-149.78;100.00;50428.41;5081543;28;20047;-70
2022/04/07 00:23:32;;;;;;;8.05;1.20;;;;;;;-149.78;100.00;50451.88;5091315;28;20044;-69
2022/04/07 00:25:58;;;;;;;11.23;1.52;;;;;;;-149.78;100.00;50447.97;5082701;28;20439;-70
2022/04/07 00:28:24;;;;;;;8.07;1.33;;;;;;;-149.78;100.00;50420.59;5072086;28;20040;-70
2022/04/07 00:30:49;;;;;;;10.50;1.52;;;;;;;-149.78;100.00;50387.34;5071850;28;20032;-70
2022/04/07 00:33:15;;;;;;;9.63;1.73;;;;;;;-149.78;100.00;50428.41;5072185;28;20468;-70
2022/04/07 00:35:41;;;;;;;9.75;1.25;;;;;;;-149.78;100.00;50408.84;5092145;28;20468;-70
2022/04/07 00:38:06;;;;;;;2.80;1.23;;;;;;;-149.78;100.00;50416.69;5091903;28;20055;-69
2022/04/07 00:40:32;;;;;;;5.18;1.77;;;;;;;-149.78;100.00;50428.41;5090330;28;20047;-69
2022/04/07 00:42:58;;;;;;;4.35;1.30;;;;;;;-149.78;100.00;50426.47;5078198;28;20070;-69
2022/04/07 00:45:24;;;;;;;4.75;1.38;;;;;;;-149.78;100.00;50401.03;5072051;28;20033;-70
2022/04/07 00:47:51;;;;;;;12.73;1.77;;;;;;;-149.78;100.00;50412.78;5070794;28;20655;-70
2022/04/07 00:50:19;;;;;;;7.40;1.20;;;;;;;-149.78;100.00;50381.47;5071897;28;20033;-69
2022/04/07 00:52:55;;;;;;;10.40;2.05;;;;;;;-149.78;100.00;50416.69;5071894;28;20028;-70
2022/04/07 00:55:21;;;;;;;6.43;1.55;;;;;;;-149.78;100.00;50414.72;5070591;28;20040;-70
2022/04/07 00:57:47;;;;;;;6.40;1.05;;;;;;;-149.78;100.00;50414.72;5070473;28;20037;-70
2022/04/07 01:00:14;;;;;;;5.13;1.35;;;;;;;-149.78;100.00;50424.50;5070190;28;20044;-70
2022/04/07 01:02:41;;;;;;;9.68;1.70;;;;;;;-149.78;100.00;50432.31;5070274;28;20036;-69
2022/04/07 01:05:09;;;;;;;11.02;1.52;;;;;;;-149.78;100.00;50393.22;5071592;28;20535;-69
2022/04/07 01:07:39;;;;;;;14.10;2.33;;;;;;;-149.78;100.00;50401.03;5077843;28;20027;-70
2022/04/07 01:10:07;;;;;;;7.05;1.95;;;;;;;-149.78;100.00;50416.69;5091950;28;20039;-69
2022/04/07 01:12:33;;;;;;;13.40;1.95;;;;;;;-149.78;100.00;50404.94;5078270;28;20032;-70
2022/04/07 01:15:01;;;;;;;8.43;1.30;;;;;;;-149.78;100.00;50406.91;5053767;28;20049;-69
2022/04/07 01:17:27;;;;;;;3.85;1.38;;;;;;;-149.78;100.00;50363.88;5071596;28;20043;-69
2022/04/07 01:19:54;;;;;;;6.18;1.30;;;;;;;-149.78;100.00;50432.31;5074343;28;20037;-70
2022/04/07 01:22:21;;;;;;;10.43;1.30;;;;;;;-149.78;100.00;50438.19;5090871;28;20043;-69
2022/04/07 01:24:47;;;;;;;10.35;1.95;;;;;;;-149.78;100.00;50444.06;5083972;28;20111;-70
2022/04/07 01:27:16;;;;;;;6.30;1.60;;;;;;;-149.78;100.00;50406.91;5090600;28;20552;-70
2022/04/07 01:29:42;;;;;;;10.32;1.58;;;;;;;-149.78;100.00;50412.78;5072506;28;20376;-69
2022/04/07 01:32:12;;;;;;;15.82;2.10;;;;;;;-149.78;100.00;50426.47;5089454;28;20036;-69
2022/04/07 01:34:39;;;;;;;5.65;1.33;;;;;;;-149.78;100.00;50389.31;5090896;28;20491;-70
2022/04/07 01:37:06;;;;;;;11.55;1.33;;;;;;;-149.78;100.00;50408.84;5089801;28;20054;-69
2022/04/07 01:39:33;;;;;;;10.73;1.70;;;;;;;-149.78;100.00;50406.91;5090268;28;20040;-69
2022/04/07 01:42:00;;;;;;;13.25;1.60;;;;;;;-149.78;100.00;50424.50;5090315;28;20036;-70
2022/04/07 01:44:26;;;;;;;11.35;2.53;;;;;;;-149.78;100.00;50440.16;5090394;28;20390;-69
2022/04/07 01:46:53;;;;;;;15.23;1.98;;;;;;;-149.78;100.00;50410.81;5073453;28;20395;-69
2022/04/07 01:49:21;;;;;;;7.90;1.65;;;;;;;-149.78;100.00;50428.41;5091547;28;20127;-70
2022/04/07 01:51:48;;;;;;;12.55;1.67;;;;;;;-149.78;100.00;50424.50;5091993;28;20625;-69
2022/04/07 01:54:15;;;;;;;17.80;1.98;;;;;;;-149.78;100.00;50428.41;5083637;28;20032;-69
2022/04/07 01:56:43;;;;;;;12.00;1.65;;;;;;;-149.78;100.00;50440.16;5074829;28;20097;-70
2022/04/07 01:59:09;;;;;;;6.72;1.50;;;;;;;-149.78;100.00;50432.31;5074859;28;20151;-69
2022/04/07 02:01:35;;;;;;;8.48;1.30;;;;;;;-149.78;100.00;50438.19;5073456;28;20098;-69
2022/04/07 02:04:01;;;;;;;9.60;1.58;;;;;;;-149.78;100.00;50403.00;5074602;28;20028;-70
2022/04/07 02:06:27;;;;;;;14.25;1.83;;;;;;;-149.78;100.00;50412.78;5074558;28;20033;-69
2022/04/07 02:08:54;;;;;;;11.77;1.58;;;;;;;-149.78;100.00;50412.78;5078212;28;20043;-69
2022/04/07 02:11:22;;;;;;;8.48;1.30;;;;;;;-149.78;100.00;50416.69;5074440;28;20090;-69
2022/04/07 02:13:50;;;;;;;12.43;1.60;;;;;;;-149.78;100.00;50447.97;5074510;28;20102;-70
2022/04/07 02:16:15;;;;;;;9.52;1.48;;;;;;;-149.78;100.00;50451.88;5074369;28;20119;-70
2022/04/07 02:18:41;;;;;;;6.03;1.35;;;;;;;-149.78;100.00;50401.03;5074366;28;20039;-69
2022/04/07 02:21:07;;;;;;;10.80;1.80;;;;;;;-149.78;100.00;50408.84;5073046;28;20466;-69
2022/04/07 02:23:42;;;;;;;13.82;1.90;;;;;;;-149.78;100.00;50404.94;5073029;28;20051;-69
2022/04/07 02:26:12;;;;;;;10.65;1.48;;;;;;;-149.78;100.00;50440.16;5074479;28;20557;-69
2022/04/07 02:28:38;;;;;;;11.85;1.50;;;;;;;-149.78;100.00;50404.94;5073078;28;20147;-69
2022/04/07 02:31:04;;;;;;;6.03;1.38;;;;;;;-149.78;100.00;50404.94;5072867;28;20384;-70
2022/04/07 02:33:30;;;;;;;13.48;2.40;;;;;;;-149.78;100.00;50377.56;5073024;28;20039;-69
2022/04/07 02:35:56;;;;;;;7.93;1.00;;;;;;;-149.78;100.00;50383.44;5073988;28;20517;-69
2022/04/07 02:38:22;;;;;;;7.82;1.50;;;;;;;-149.78;100.00;50410.81;5073783;28;20078;-70
2022/04/07 02:40:47;;;;;;;7.43;1.52;;;;;;;-149.78;100.00;50385.38;5072776;28;20032;-69
2022/04/07 02:43:13;;;;;;;12.50;2.25;;;;;;;-149.78;100.00;50440.16;5076666;28;20032;-69
2022/04/07 02:45:38;;;;;;;11.25;1.10;;;;;;;-149.78;100.00;50381.47;5073776;28;20476;-69
2022/04/07 02:48:04;;;;;;;7.28;1.20;;;;;;;-149.78;100.00;50420.59;5077235;28;20137;-69
2022/04/07 02:50:30;;;;;;;11.50;1.50;;;;;;;-149.78;100.00;50436.25;5075695;28;20024;-69
2022/04/07 02:52:56;;;;;;;9.57;1.80;;;;;;;-149.78;100.00;50467.53;5083912;28;20040;-69
2022/04/07 02:55:22;;;;;;;7.43;1.30;;;;;;;-149.78;100.00;50432.31;5072540;28;20404;-69
2022/04/07 02:57:47;;;;;;;5.57;1.20;;;;;;;-149.78;100.00;50432.31;5088260;28;20126;-70
2022/04/07 03:00:13;;;;;;;8.93;1.45;;;;;;;-149.78;100.00;50416.69;5093525;28;20475;-70
2022/04/07 03:02:39;;;;;;;7.47;1.15;;;;;;;-149.78;100.00;50416.69;5093849;28;20036;-69
2022/04/07 03:05:05;;;;;;;6.00;1.63;;;;;;;-149.78;100.00;50377.56;5074761;28;20483;-69
2022/04/07 03:07:30;;;;;;;9.10;1.38;;;;;;;-149.78;100.00;50412.78;5092448;28;20028;-70
2022/04/07 03:09:56;;;;;;;5.28;1.50;;;;;;;-149.78;100.00;50412.78;5092386;28;20606;-70
2022/04/07 03:12:21;;;;;;;9.48;1.50;;;;;;;-149.78;100.00;50416.69;5093493;28;20042;-69
2022/04/07 03:14:47;;;;;;;8.60;1.58;;;;;;;-149.78;100.00;50416.69;5093401;28;20133;-69
2022/04/07 03:17:12;;;;;;;6.28;1.35;;;;;;;-149.78;100.00;50451.88;5090771;28;20122;-69
2022/04/07 03:19:38;;;;;;;10.10;1.30;;;;;;;-149.78;100.00;50428.41;5083290;28;20484;-70
2022/04/07 03:22:04;;;;;;;7.28;1.45;;;;;;;-149.78;100.00;50416.69;5071379;28;20429;-69
2022/04/07 03:24:29;;;;;;;7.03;1.90;;;;;;;-149.78;100.00;50432.31;5072847;28;20033;-69
2022/04/07 03:26:55;;;;;;;8.82;2.47;;;;;;;-149.78;100.00;50404.94;5055237;28;20124;-69
2022/04/07 03:29:21;;;;;;;11.15;1.77;;;;;;;-149.78;100.00;50408.84;5072968;28;20558;-69
2022/04/07 03:31:48;;;;;;;11.45;2.40;;;;;;;-149.78;100.00;50416.69;5071090;28;20357;-69
2022/04/07 03:34:14;;;;;;;5.47;1.48;;;;;;;-149.78;100.00;50377.56;5057121;28;20523;-70
2022/04/07 03:36:39;;;;;;;8.27;1.73;;;;;;;-149.78;100.00;50424.50;5076502;28;20055;-69
2022/04/07 03:39:05;;;;;;;9.25;1.50;;;;;;;-149.78;100.00;50449.94;5071401;28;20052;-70
2022/04/07 03:41:30;;;;;;;7.38;1.60;;;;;;;-149.78;100.00;50438.19;5081806;28;20036;-70
2022/04/07 03:43:56;;;;;;;13.98;1.85;;;;;;;-149.78;100.00;50440.16;5093125;28;20039;-69
2022/04/07 03:46:22;;;;;;;8.90;1.45;;;;;;;-149.78;100.00;50436.25;5093079;28;20032;-69
2022/04/07 03:48:49;;;;;;;7.03;1.33;;;;;;;-149.78;100.00;50399.09;5073311;28;20495;-70
2022/04/07 03:51:16;;;;;;;9.32;1.30;;;;;;;-149.78;100.00;50420.59;5072935;28;20115;-70
2022/04/07 03:53:41;;;;;;;10.40;1.42;;;;;;;-149.78;100.00;50416.69;5071381;28;20032;-70
2022/04/07 03:56:08;;;;;;;7.47;1.42;;;;;;;-149.78;100.00;50453.84;5075527;28;20479;-69
2022/04/07 03:58:34;;;;;;;8.98;1.33;;;;;;;-149.78;100.00;50438.19;5091677;28;20040;-69
2022/04/07 04:00:59;;;;;;;6.18;1.27;;;;;;;-149.78;100.00;50412.78;5092951;28;20042;-70
2022/04/07 04:03:25;;;;;;;8.25;1.10;;;;;;;-149.78;100.00;50416.69;5091642;28;20399;-69
2022/04/07 04:05:50;;;;;;;6.00;1.00;;;;;;;-149.78;100.00;50385.38;5092395;28;20032;-69
2022/04/07 04:08:16;;;;;;;9.55;1.13;;;;;;;-149.78;100.00;50440.16;5073321;28;20044;-70
2022/04/07 04:10:41;;;;;;;5.20;0.82;;;;;;;-149.78;100.00;50428.41;5083000;28;20031;-70
2022/04/07 04:13:08;;;;;;;2.35;1.10;;;;;;;-149.78;100.00;50434.28;5091469;28;20514;-70
2022/04/07 04:15:34;;;;;;;4.20;0.80;;;;;;;-149.78;100.00;50455.81;5091794;28;20435;-70
2022/04/07 04:18:00;;;;;;;2.65;0.98;;;;;;;-149.78;100.00;50447.97;5074402;28;20040;-70
2022/04/07 04:20:25;;;;;;;6.15;1.05;;;;;;;-149.78;100.00;50465.56;5092465;28;20032;-70
2022/04/07 04:22:52;;;;;;;9.10;1.35;;;;;;;-149.78;100.00;50463.63;5091088;28;20097;-70
2022/04/07 04:25:18;;;;;;;5.95;0.98;;;;;;;-149.78;100.00;50412.78;5092378;28;20028;-70
2022/04/07 04:27:44;;;;;;;6.18;1.30;;;;;;;-149.78;100.00;50428.41;5083699;28;20025;-69
2022/04/07 04:30:13;;;;;;;6.15;1.17;;;;;;;-149.78;100.00;50428.41;5072041;28;20032;-69
2022/04/07 04:32:39;;;;;;;4.35;1.20;;;;;;;-149.78;100.00;50428.41;5072105;28;20039;-70
2022/04/07 04:35:06;;;;;;;5.32;1.05;;;;;;;-149.78;100.00;50412.78;5076724;28;20036;-70
2022/04/07 04:37:31;;;;;;;7.43;1.52;;;;;;;-149.78;100.00;50447.97;5091095;28;20043;-69
2022/04/07 04:39:57;;;;;;;8.73;1.23;;;;;;;-149.78;100.00;50447.97;5082126;28;20510;-70
2022/04/07 04:42:23;;;;;;;8.32;1.20;;;;;;;-149.78;100.00;50471.44;5069729;28;20032;-70
2022/04/07 04:44:49;;;;;;;5.93;1.00;;;;;;;-149.78;100.00;50467.53;5072092;28;20461;-70
2022/04/07 04:47:17;;;;;;;7.88;1.55;;;;;;;-149.78;100.00;50424.50;5072108;28;20066;-70
2022/04/07 04:49:42;;;;;;;3.53;1.20;;;;;;;-149.78;100.00;50424.50;5054106;28;20047;-70
2022/04/07 04:52:09;;;;;;;7.35;1.10;;;;;;;-149.78;100.00;50467.53;5071955;28;20056;-70
2022/04/07 04:54:35;;;;;;;6.85;1.30;;;;;;;-149.78;100.00;50387.34;5071860;28;20082;-70
2022/04/07 04:57:02;;;;;;;5.50;1.63;;;;;;;-149.78;100.00;50432.31;5071760;28;20039;-70
2022/04/07 04:59:27;;;;;;;5.25;1.08;;;;;;;-149.78;100.00;50436.25;5037478;28;20406;-70
2022/04/07 05:01:53;;;;;;;4.30;1.85;;;;;;;-149.78;100.00;50463.63;5071658;28;20032;-70
2022/04/07 05:04:18;;;;;;;6.55;1.40;;;;;;;-149.78;100.00;50471.44;5070826;28;20090;-70
2022/04/07 05:06:44;;;;;;;3.20;1.40;;;;;;;-149.78;100.00;50461.66;5071538;28;20071;-70
2022/04/07 05:09:09;;;;;;;4.57;1.50;;;;;;;-149.78;100.00;50428.41;5054034;28;20526;-70
2022/04/07 05:11:35;;;;;;;5.80;1.60;;;;;;;-149.78;100.00;50440.16;5070592;28;20476;-70
2022/04/07 05:14:01;;;;;;;5.43;1.15;;;;;;;-149.78;100.00;50440.16;5070714;28;20473;-70
2022/04/07 05:16:27;;;;;;;7.43;1.55;;;;;;;-149.78;100.00;50428.41;5071772;28;20059;-70
2022/04/07 05:18:54;;;;;;;11.38;1.65;;;;;;;-149.78;100.00;50483.19;5071759;28;20074;-70
2022/04/07 05:21:19;;;;;;;5.63;1.40;;;;;;;-149.78;100.00;50475.34;5053901;28;20044;-70
2022/04/07 05:23:45;;;;;;;3.53;1.02;;;;;;;-149.78;100.00;50447.97;5071681;28;20036;-70
2022/04/07 05:26:14;;;;;;;6.97;1.30;;;;;;;-149.78;100.00;50465.56;5070488;28;20472;-70
2022/04/07 05:28:41;;;;;;;1.33;0.85;;;;;;;-149.78;100.00;50459.72;5087786;28;20032;-70
2022/04/07 05:31:07;;;;;;;1.52;0.50;;;;;;;-149.78;100.00;50416.69;5095818;28;20064;-69
2022/04/07 05:33:33;;;;;;;1.63;0.70;;;;;;;-149.78;100.00;50428.41;5095882;28;20036;-70
2022/04/07 05:35:58;;;;;;;0.75;0.43;;;;;;;-149.78;100.00;50469.50;5095699;28;20036;-70
2022/04/07 05:38:24;;;;;;;1.00;0.50;;;;;;;-149.78;100.00;50471.44;5077578;28;20499;-70
2022/04/07 05:40:50;;;;;;;2.30;0.80;;;;;;;-149.78;100.00;50459.72;5090166;28;20035;-69
2022/04/07 05:43:16;;;;;;;3.25;1.05;;;;;;;-149.78;100.00;50451.88;5062410;28;20040;-70
2022/04/07 05:45:45;;;;;;;4.07;1.50;;;;;;;-149.78;100.00;50432.31;5091160;28;20049;-69
2022/04/07 05:48:12;;;;;;;6.68;1.60;;;;;;;-149.78;100.00;50494.91;5057797;28;20044;-70
2022/04/07 05:50:39;;;;;;;4.95;1.60;;;;;;;-149.78;100.00;50481.22;5073968;28;20029;-70
2022/04/07 05:53:06;;;;;;;7.72;1.85;;;;;;;-149.78;100.00;50467.53;5075004;28;20175;-70
2022/04/07 05:55:35;;;;;;;6.80;2.03;;;;;;;-149.78;100.00;50447.97;5074018;28;20032;-70
2022/04/07 05:58:06;;;;;;;10.45;2.60;;;;;;;-149.78;100.00;50447.97;5075229;28;20477;-70
2022/04/07 06:00:32;;;;;;;7.95;2.10;;;;;;;-149.78;100.00;50447.97;5073688;28;20487;-69
2022/04/07 06:02:58;;;;;;;9.82;2.67;;;;;;;-149.78;100.00;50483.19;5075037;28;20037;-70
2022/04/07 06:05:24;;;;;;;8.15;2.17;;;;;;;-149.78;100.00;50459.72;5074788;28;20059;-70
2022/04/07 06:07:49;;;;;;;10.25;2.17;;;;;;;-149.78;100.00;50428.41;5074488;28;20116;-70
2022/04/07 06:10:16;;;;;;;6.20;2.63;;;;;;;-149.78;100.00;50463.63;5057122;28;20120;-70
2022/04/07 06:12:43;;;;;;;5.18;1.90;;;;;;;-149.78;100.00;50440.16;5073646;28;20078;-70
2022/04/07 06:15:10;;;;;;;6.35;2.65;;;;;;;-149.78;100.00;50436.25;5074778;28;20116;-70
2022/04/07 06:17:41;;;;;;;6.72;2.35;;;;;;;-149.78;100.00;50483.19;5073684;28;20089;-70
2022/04/07 06:20:10;;;;;;;8.38;2.90;;;;;;;-149.78;100.00;50416.69;5074518;28;20032;-70
2022/04/07 06:22:36;;;;;;;7.80;2.75;;;;;;;-149.78;100.00;50453.84;5074463;28;20043;-70
2022/04/07 06:25:02;;;;;;;10.40;3.10;;;;;;;-149.78;100.00;50483.19;5074098;28;20120;-70
2022/04/07 06:27:34;;;;;;;12.13;2.75;;;;;;;-149.78;100.00;50471.44;5079602;28;20096;-70
2022/04/07 06:30:00;;;;;;;6.25;2.78;;;;;;;-149.78;100.00;50459.72;5081831;28;20135;-70
2022/04/07 06:32:26;;;;;;;6.45;3.17;;;;;;;-149.78;100.00;50451.88;5080959;28;20119;-70
2022/04/07 06:34:51;;;;;;;6.78;3.30;;;;;;;-149.78;100.00;50459.72;5080829;28;20430;-70
2022/04/07 06:37:17;;;;;;;6.80;3.20;;;;;;;-149.78;100.00;50428.41;5078607;28;20067;-70
2022/04/07 06:39:42;;;;;;;7.88;2.10;;;;;;;-149.78;100.00;50436.25;5082880;28;20028;-70
2022/04/07 06:42:08;;;;;;;8.55;2.17;;;;;;;-149.78;100.00;50459.72;5060983;28;20036;-70
2022/04/07 06:44:33;;;;;;;4.50;1.80;;;;;;;-149.78;100.00;50432.31;5075001;28;20066;-70
2022/04/07 06:46:59;;;;;;;6.72;1.45;;;;;;;-149.78;100.00;50447.97;5079647;28;20167;-70
2022/04/07 06:49:25;;;;;;;4.95;1.08;;;;;;;-149.78;100.00;50440.16;5081457;28;20067;-70
2022/04/07 06:51:50;;;;;;;6.95;1.35;;;;;;;-149.78;100.00;50408.84;5072580;28;20468;-70
2022/04/07 06:54:16;;;;;;;4.28;1.30;;;;;;;-149.78;100.00;50401.03;5082060;28;20566;-71
2022/04/07 06:56:41;;;;;;;8.35;1.50;;;;;;;-149.78;100.00;50418.63;5075920;28;20029;-70
2022/04/07 06:59:07;;;;;;;9.25;1.30;;;;;;;-149.78;100.00;50393.22;5079537;28;20032;-70
2022/04/07 07:01:33;;;;;;;5.13;1.40;;;;;;;-149.78;100.00;50404.94;5079332;28;20028;-70
2022/04/07 07:04:01;;;;;;;8.70;1.48;;;;;;;-149.78;100.00;50389.31;5075741;28;20043;-69
2022/04/07 07:06:26;;;;;;;6.75;1.27;;;;;;;-149.78;100.00;50377.56;5054336;28;20037;-69
2022/04/07 07:08:52;;;;;;;6.18;1.15;;;;;;;-149.78;100.00;50342.38;5059573;28;20044;-70
2022/04/07 07:11:18;;;;;;;5.80;1.23;;;;;;;-149.78;100.00;50322.81;5081976;28;20032;-69
2022/04/07 07:13:43;;;;;;;6.78;1.73;;;;;;;-149.78;100.00;50338.44;5078233;28;20028;-70
2022/04/07 07:16:09;;;;;;;4.65;1.00;;;;;;;-149.78;100.00;50318.91;5078624;28;20051;-70
2022/04/07 07:18:34;;;;;;;7.80;1.20;;;;;;;-149.78;100.00;50281.75;5080422;28;20052;-69
2022/04/07 07:21:01;;;;;;;4.65;1.27;;;;;;;-149.78;100.00;50326.72;5080002;28;20459;-69
2022/04/07 07:23:26;;;;;;;3.78;1.20;;;;;;;-149.78;100.00;50322.81;5081831;28;20024;-69
2022/04/07 07:25:52;;;;;;;5.15;1.50;;;;;;;-149.78;100.00;50354.09;5077214;28;20048;-70
2022/04/07 07:28:18;;;;;;;7.07;1.38;;;;;;;-149.78;100.00;50397.13;5081367;28;20039;-70
2022/04/07 07:30:43;;;;;;;6.18;1.33;;;;;;;-149.78;100.00;50393.22;5083645;28;20549;-69
2022/04/07 07:33:11;;;;;;;8.75;1.70;;;;;;;-149.78;100.00;50418.63;5084202;28;20399;-70
2022/04/07 07:35:37;;;;;;;9.85;1.38;;;;;;;-149.78;100.00;50404.94;5065672;28;20050;-69
2022/04/07 07:38:04;;;;;;;9.45;1.40;;;;;;;-149.78;100.00;50389.31;5080114;28;20150;-69
2022/04/07 07:40:32;;;;;;;5.40;1.23;;;;;;;-149.78;100.00;50352.16;5081178;28;20036;-69
2022/04/07 07:43:00;;;;;;;10.30;1.75;;;;;;;-149.78;100.00;50322.81;5078789;28;20383;-70
2022/04/07 07:45:27;;;;;;;5.25;1.30;;;;;;;-149.78;100.00;50307.16;5080635;28;20024;-69
2022/04/07 07:47:53;;;;;;;5.55;1.13;;;;;;;-149.78;100.00;50307.16;5084151;28;20036;-69
2022/04/07 07:50:20;;;;;;;4.50;1.20;;;;;;;-149.78;100.00;50291.50;5078304;28;20020;-69
2022/04/07 07:52:46;;;;;;;3.45;1.00;;;;;;;-149.78;100.00;50260.22;5087103;28;20514;-70
2022/04/07 07:55:12;;;;;;;5.70;1.33;;;;;;;-149.78;100.00;50271.97;5082095;28;20028;-70
2022/04/07 07:57:37;;;;;;;8.68;1.55;;;;;;;-149.78;100.00;50307.16;5076015;28;20087;-70
2022/04/07 08:00:07;;;;;;;5.55;1.05;;;;;;;-149.78;100.00;50291.50;5080355;28;20434;-69
2022/04/07 08:02:34;;;;;;;4.05;1.02;;;;;;;-149.78;100.00;50271.97;5073785;28;20028;-69
2022/04/07 08:05:01;;;;;;;2.63;0.80;;;;;;;-149.78;100.00;50232.84;5072056;28;20037;-70
2022/04/07 08:07:27;;;;;;;2.58;1.05;;;;;;;-149.78;100.00;50205.47;5075160;28;20039;-70
2022/04/07 08:09:56;;;;;;;6.72;1.25;;;;;;;-149.78;100.00;50219.16;5080841;28;20032;-70
2022/04/07 08:12:26;;;;;;;4.22;0.77;;;;;;;-149.78;100.00;50197.66;5083866;28;20035;-70
2022/04/07 08:14:53;;;;;;;3.15;1.13;;;;;;;-149.78;100.00;50185.91;5076324;28;20109;-70
2022/04/07 08:17:20;;;;;;;2.85;0.57;;;;;;;-149.78;100.00;50193.72;5068735;28;20690;-71
2022/04/07 08:19:45;;;;;;;4.80;1.00;;;;;;;-149.78;100.00;50197.66;5081915;28;20217;-69
2022/04/07 08:22:11;;;;;;;6.15;0.93;;;;;;;-149.78;100.00;50217.19;5079812;28;20115;-71
2022/04/07 08:24:37;;;;;;;2.70;0.60;;;;;;;-149.78;100.00;50236.75;5056272;28;20056;-70
2022/04/07 08:27:04;;;;;;;2.28;1.08;;;;;;;-149.78;100.00;50185.91;5071077;28;20028;-70
2022/04/07 08:29:31;;;;;;;6.90;1.70;;;;;;;-149.78;100.00;50209.38;5078976;28;20066;-70
2022/04/07 08:31:58;;;;;;;3.92;1.17;;;;;;;-149.78;100.00;50174.19;5079784;28;20031;-69
2022/04/07 08:34:25;;;;;;;5.82;1.40;;;;;;;-149.78;100.00;50221.13;5076413;28;20043;-70
2022/04/07 08:36:52;;;;;;;8.85;1.80;;;;;;;-149.78;96.66;50225.03;5076611;28;20396;-70
2022/04/07 08:39:18;;;;;;;3.92;1.08;;;;;;;-149.78;100.00;50244.59;5076347;28;20028;-71
2022/04/07 08:41:45;;;;;;;4.15;1.13;;;;;;;-149.78;100.00;50275.88;5081965;28;20070;-71
2022/04/07 08:44:17;;;;;;;8.18;1.13;;;;;;;-149.78;100.00;50264.13;5075908;28;20036;-71
2022/04/07 08:46:52;;;;;;;2.70;0.60;;;;;;;-149.78;100.00;50295.44;5075048;28;20479;-71
2022/04/07 08:49:21;;;;;;;3.28;0.77;;;;;;;-149.78;100.00;50307.16;5081532;28;20040;-71
2022/04/07 08:51:47;;;;;;;5.45;1.40;;;;;;;-149.78;100.00;50328.69;5083964;28;20051;-72
2022/04/07 08:54:14;;;;;;;5.43;1.33;;;;;;;-149.78;100.00;50346.28;5075635;28;20708;-71
2022/04/07 08:56:39;;;;;;;3.17;1.23;;;;;;;-149.78;100.00;50295.44;5079021;28;20132;-71
2022/04/07 08:59:05;;;;;;;4.18;0.73;;;;;;;-149.78;100.00;50268.03;5079273;28;20107;-71
2022/04/07 09:01:31;;;;;;;0.47;0.40;;;;;;;-149.78;100.00;50246.53;5082884;28;20036;-73
2022/04/07 09:03:57;;;;;;;1.15;0.77;;;;;;;-149.78;100.00;50197.66;5086780;28;20085;-71
2022/04/07 09:06:23;;;;;;;1.55;0.75;;;;;;;-149.78;100.00;50201.56;5091326;28;20109;-72
2022/04/07 09:08:49;;;;;;;2.95;1.65;;;;;;;-149.78;95.67;50197.66;5077510;28;20028;-72
2022/04/07 09:11:17;;;;;;;2.70;0.80;;;;;;;-149.78;69.49;50146.81;5093952;28;20032;-72
2022/04/07 09:13:47;;;;;;;2.60;0.90;;;;;;;-149.78;68.64;50123.34;5094591;28;20383;-70
2022/04/07 09:16:14;;;;;;;4.90;1.23;;;;;;;-149.78;68.71;50142.88;5078408;28;20375;-71
2022/04/07 09:18:44;;;;;;;3.05;0.75;;;;;;;-149.78;77.90;50185.91;5093935;28;20028;-71
2022/04/07 09:21:27;;;;;;;3.25;0.75;;;;;;;-149.78;64.60;50170.25;5095768;28;20032;-71
2022/04/07 09:23:57;;;;;;;1.85;0.80;;;;;;;-149.78;70.95;50209.38;5088937;28;20097;-70
2022/04/07 09:26:23;;;;;;;5.15;1.08;;;;;;;-149.78;76.46;50215.25;5065945;28;20037;-71
2022/04/07 09:28:54;;;;;;;5.60;1.02;;;;;;;-149.78;97.96;50268.03;5057404;28;20033;-71
2022/04/07 09:31:22;;;;;;;4.15;1.35;;;;;;;-149.78;100.00;50313.03;5075589;28;20099;-71
2022/04/07 09:33:55;;;;;;;9.05;1.20;;;;;;;-149.78;100.00;50338.44;5075092;28;20046;-71
2022/04/07 09:36:22;;;;;;;5.57;1.08;;;;;;;-149.78;100.00;50303.25;5087820;28;20043;-71
2022/04/07 09:38:52;;;;;;;2.50;0.60;;;;;;;-149.78;100.00;50326.72;5058692;28;20052;-70
2022/04/07 09:41:19;;;;;;;3.65;1.23;;;;;;;-149.78;100.00;50348.22;5073870;28;20036;-70
2022/04/07 09:43:49;;;;;;;1.42;0.60;;;;;;;-149.78;100.00;50271.97;5057326;28;20029;-70
2022/04/07 09:46:19;;;;;;;2.58;1.10;;;;;;;-149.78;100.00;50326.72;5073829;28;20040;-70
2022/04/07 09:49:08;;;;;;;2.97;0.65;;;;;;;-149.78;100.00;50311.06;5075078;28;20032;-71
2022/04/07 09:51:46;;;;;;;2.33;0.88;;;;;;;-149.78;100.00;50354.09;5073854;28;20388;-72
2022/04/07 09:54:14;;;;;;;8.80;1.90;;;;;;;-149.78;100.00;50299.34;5075046;28;20039;-72
2022/04/07 09:56:40;;;;;;;12.00;1.42;;;;;;;-149.78;100.00;50314.97;5074949;28;20024;-71
2022/04/07 09:59:07;;;;;;;6.18;1.45;;;;;;;-149.78;100.00;50385.38;5082409;28;20509;-71
2022/04/07 10:01:38;;;;;;;6.78;1.80;;;;;;;-149.78;100.00;50307.16;5093156;28;20055;-71
2022/04/07 10:04:05;;;;;;;4.05;1.17;;;;;;;-149.78;100.00;50314.97;5095040;28;20107;-71
2022/04/07 10:06:35;;;;;;;6.68;1.55;;;;;;;-149.78;100.00;50266.09;5095063;28;20100;-71
2022/04/07 10:09:04;;;;;;;9.02;1.60;;;;;;;-149.78;100.00;50311.06;5076397;28;20048;-71
2022/04/07 10:11:33;;;;;;;5.15;1.20;;;;;;;-149.78;100.00;50313.03;5074720;28;20032;-71
2022/04/07 10:14:00;;;;;;;7.15;2.05;;;;;;;-149.78;100.00;50273.91;5073169;28;20097;-71
2022/04/07 10:16:27;;;;;;;7.93;1.60;;;;;;;-149.78;100.00;50260.22;5073565;28;20093;-71
2022/04/07 10:18:58;;;;;;;10.13;3.13;;;;;;;-149.78;90.80;50228.94;5056647;28;20482;-71
2022/04/07 10:22:11;;;;;;;5.30;1.67;;;;;;;-149.78;80.84;50221.13;5074527;28;20036;-71
2022/04/07 10:24:42;;;;;;;4.00;1.40;;;;;;;-149.78;78.97;50244.59;5055286;28;20040;-71
2022/04/07 10:27:10;;;;;;;4.10;1.30;;;;;;;-149.78;87.48;50217.19;5073442;28;20481;-71
2022/04/07 10:29:38;;;;;;;5.40;1.40;;;;;;;-149.78;84.42;50244.59;5064202;28;20562;-72
2022/04/07 10:32:18;;;;;;;4.45;1.10;;;;;;;-149.78;76.22;50215.25;5073142;28;20488;-72
2022/04/07 10:34:58;;;;;;;8.13;1.30;;;;;;;-149.78;69.42;50185.91;5074211;28;20040;-71
2022/04/07 10:37:31;;;;;;;7.45;1.15;;;;;;;-149.78;63.35;50162.44;5093697;28;20486;-71
2022/04/07 10:40:35;;;;;;;3.67;0.98;;;;;;;-149.78;68.37;50213.28;5085254;28;20029;-71
2022/04/07 10:43:07;;;;;;;5.20;1.30;;;;;;;-149.78;83.56;50225.03;5080789;28;20032;-71
2022/04/07 10:45:33;;;;;;;3.25;1.00;;;;;;;-149.78;73.45;50201.56;5094431;28;20132;-71
2022/04/07 10:48:17;;;;;;;2.40;0.85;;;;;;;-149.78;75.56;50228.94;5094084;28;20456;-71
2022/04/07 10:50:57;;;;;;;6.07;0.93;;;;;;;-149.78;74.12;50232.84;5094101;28;20039;-72
2022/04/07 10:53:35;;;;;;;5.55;1.25;;;;;;;-149.78;76.27;50189.81;5094044;28;20036;-71
2022/04/07 10:56:22;;;;;;;2.97;1.10;;;;;;;-149.78;69.57;50236.75;5092093;28;20090;-71
2022/04/07 10:58:49;;;;;;;3.63;1.10;;;;;;;-149.78;72.26;50223.06;5072449;28;20468;-70
2022/04/07 11:01:36;;;;;;;4.32;1.30;;;;;;;-149.78;75.52;50213.28;5073617;28;20057;-70
2022/04/07 11:04:23;;;;;;;3.85;0.95;;;;;;;-149.78;76.32;50201.56;5055557;28;20036;-71
2022/04/07 11:07:16;;;;;;;5.07;1.25;;;;;;;-149.78;77.76;50228.94;5072375;28;20032;-71
2022/04/07 11:10:14;;;;;;;5.78;1.13;;;;;;;-149.78;100.00;50264.13;5077812;28;20396;-70
2022/04/07 11:12:59;;;;;;;2.38;0.80;;;;;;;-149.78;100.00;50307.16;5080562;28;20044;-70